Wilp, Netherlands
Current Conditions -  °F | °C
As of 9:25 PM on Sunday 23 Nov 2014 (Local Time) from EHDL Reporting Station
Overcast Overcast  
Wind Chill: 50°   Ceiling: 2700
Heat Index: 50°   Visibility: 6mi
Dew Point: 48°   Wind: 5mph
Humidity: 94%   Direction: 180°S
Pressure: 29.94"   Gusts: NA
Location:  52.22°N, 6.15°E
Report Text: EHDL 232025Z AUTO 18004KT 9999 BKN027 OVC130 10/09 Q1014 BLU
Loading
Personal Weather Stations






























Interactive Weather Map New forecast layout! Learn more

10-Day Weather Forecast

Advertisements
Track Severe Weather on mobile